Hancock, Michigan
Current Conditions -  °F | °C
As of 11:22 AM on Sunday 23 Nov 2014 (Local Time) from KCMX Reporting Station
Haze Haze  
Wind Chill: 37°   Ceiling: 500
Heat Index: 40°   Visibility: 5mi
Dew Point: 37°   Wind: 5mph
Humidity: 89%   Direction: 110°ESE
Pressure: 29.49"   Gusts: NA
Location:  47.13°N, 88.58°W
Report Text: KCMX 231622Z AUTO 11004KT 5SM BR OVC005 04/03 A2949 RMK AO2 T00440028
Loading
Personal Weather Stations






























Interactive Weather Map New forecast layout! Learn more

10-Day Weather Forecast

Advertisements
Track Severe Weather on mobile